createdAt,value
2018-02-27T00:01:59.109Z,33.30
2018-02-27T00:04:26.705Z,32.50
2018-02-27T00:06:54.684Z,32.80
2018-02-27T00:09:23.570Z,32.80
2018-02-27T00:11:51.193Z,33.30
2018-02-27T00:14:20.315Z,33.90
2018-02-27T00:16:48.736Z,34.00
2018-02-27T00:19:16.340Z,33.50
2018-02-27T00:21:44.723Z,33.30
2018-02-27T00:24:13.406Z,33.50
2018-02-27T00:26:41.421Z,33.70
2018-02-27T00:29:09.806Z,33.20
2018-02-27T00:31:38.609Z,33.20
2018-02-27T00:34:06.621Z,33.00
2018-02-27T00:36:34.625Z,33.00
2018-02-27T00:39:02.244Z,32.80
2018-02-27T00:41:30.314Z,32.40
2018-02-27T00:43:58.469Z,32.30
2018-02-27T00:46:27.262Z,32.20
2018-02-27T00:48:55.284Z,32.30
2018-02-27T00:51:23.667Z,32.30
2018-02-27T00:53:52.454Z,32.80
2018-02-27T00:56:20.897Z,33.20
2018-02-27T00:58:49.381Z,33.20
2018-02-27T01:01:16.975Z,32.60
2018-02-27T01:03:45.333Z,32.90
2018-02-27T01:06:13.729Z,33.10
2018-02-27T01:08:42.136Z,33.50
2018-02-27T01:11:10.541Z,33.80
2018-02-27T01:13:38.517Z,33.70
2018-02-27T01:16:06.968Z,30.90
2018-02-27T01:18:35.472Z,33.40
2018-02-27T01:21:03.977Z,33.30
2018-02-27T01:23:31.982Z,33.30
2018-02-27T01:26:00.375Z,33.20
2018-02-27T01:28:29.126Z,33.50
2018-02-27T01:30:57.248Z,33.70
2018-02-27T01:33:25.286Z,33.80
2018-02-27T01:35:53.635Z,34.10
2018-02-27T01:38:21.379Z,34.00
2018-02-27T01:40:48.970Z,33.80
2018-02-27T01:43:17.484Z,34.10
2018-02-27T01:45:46.911Z,34.10
2018-02-27T01:48:15.360Z,33.90
2018-02-27T01:50:43.734Z,34.00
2018-02-27T01:53:12.839Z,34.60
2018-02-27T01:55:40.813Z,34.20
2018-02-27T01:58:08.813Z,33.90
2018-02-27T02:00:37.164Z,33.80
2018-02-27T02:03:05.537Z,33.70
2018-02-27T02:05:33.893Z,33.80
2018-02-27T02:08:02.827Z,33.60
2018-02-27T02:10:30.883Z,33.80
2018-02-27T02:12:59.241Z,33.90
2018-02-27T02:15:27.212Z,34.10
2018-02-27T02:17:55.855Z,34.00
2018-02-27T02:20:24.706Z,35.20
2018-02-27T02:22:53.278Z,35.00
2018-02-27T02:25:21.395Z,34.30
2018-02-27T02:27:49.033Z,34.30
2018-02-27T02:30:17.662Z,34.40
2018-02-27T02:32:45.661Z,34.10
2018-02-27T02:35:13.731Z,35.20
2018-02-27T02:37:41.355Z,35.40
2018-02-27T02:40:09.740Z,35.40
2018-02-27T02:42:38.488Z,34.40
2018-02-27T02:45:06.265Z,34.20
2018-02-27T02:47:34.260Z,33.80
2018-02-27T02:50:02.673Z,33.70
2018-02-27T02:52:31.285Z,33.60
2018-02-27T02:54:59.437Z,33.50
2018-02-27T02:57:27.792Z,33.20
2018-02-27T02:59:56.178Z,33.40
2018-02-27T03:02:24.540Z,34.10
2018-02-27T03:04:53.040Z,34.00
2018-02-27T03:07:21.936Z,34.30
2018-02-27T03:09:49.653Z,34.10
2018-02-27T03:12:17.986Z,33.80
2018-02-27T03:14:47.740Z,33.80
2018-02-27T03:17:16.151Z,33.70
2018-02-27T03:19:45.063Z,34.50
2018-02-27T03:22:12.719Z,34.00
2018-02-27T03:24:41.100Z,34.10
2018-02-27T03:27:09.752Z,34.30
2018-02-27T03:29:37.753Z,34.00
2018-02-27T03:32:06.245Z,34.10
2018-02-27T03:34:34.638Z,34.30
2018-02-27T03:37:02.721Z,34.60
2018-02-27T03:39:31.248Z,33.80
2018-02-27T03:41:59.603Z,34.40
2018-02-27T03:44:28.026Z,34.70
2018-02-27T03:46:56.409Z,34.40
2018-02-27T03:49:24.750Z,34.50
2018-02-27T03:51:53.350Z,34.60
2018-02-27T03:54:21.788Z,34.50
2018-02-27T03:56:49.920Z,34.30
2018-02-27T03:59:17.906Z,34.10
2018-02-27T04:01:45.507Z,33.90
2018-02-27T04:04:13.970Z,33.60
2018-02-27T04:06:42.671Z,33.80
2018-02-27T04:09:10.256Z,34.10
2018-02-27T04:11:39.145Z,34.80
2018-02-27T04:14:06.712Z,34.20
2018-02-27T04:16:35.354Z,34.20
2018-02-27T04:19:04.289Z,34.10
2018-02-27T04:21:31.917Z,33.90
2018-02-27T04:24:00.490Z,34.10
2018-02-27T04:26:28.736Z,34.10
2018-02-27T04:28:57.348Z,34.30
2018-02-27T04:31:25.363Z,34.10
2018-02-27T04:33:53.715Z,33.80
2018-02-27T04:36:22.095Z,34.00
2018-02-27T04:38:50.587Z,34.10
2018-02-27T04:41:18.644Z,34.30
2018-02-27T04:43:48.305Z,35.50
2018-02-27T04:46:16.688Z,34.70
2018-02-27T04:48:45.021Z,34.80
2018-02-27T04:51:13.380Z,34.50
2018-02-27T04:53:41.737Z,34.30
2018-02-27T04:56:10.095Z,34.30
2018-02-27T04:58:38.436Z,34.30
2018-02-27T05:01:06.796Z,34.70
2018-02-27T05:03:35.145Z,34.80
2018-02-27T05:06:04.498Z,35.20
2018-02-27T05:08:33.363Z,34.40
2018-02-27T05:11:01.828Z,34.50
2018-02-27T05:13:31.327Z,34.50
2018-02-27T05:15:59.695Z,34.70
2018-02-27T05:18:28.037Z,34.60
2018-02-27T05:20:56.682Z,34.90
2018-02-27T05:23:24.693Z,34.80
2018-02-27T05:25:53.129Z,34.70
2018-02-27T05:28:22.232Z,35.10
2018-02-27T05:30:49.826Z,35.00
2018-02-27T05:33:18.270Z,35.10
2018-02-27T05:35:52.387Z,35.30
2018-02-27T05:38:20.373Z,35.30
2018-02-27T05:40:48.817Z,35.20
2018-02-27T05:43:17.192Z,35.60
2018-02-27T05:45:45.527Z,35.50
2018-02-27T05:48:14.196Z,35.60
2018-02-27T05:50:42.262Z,36.00
2018-02-27T05:53:10.759Z,36.00
2018-02-27T05:55:39.088Z,35.90
2018-02-27T05:58:10.929Z,36.00
2018-02-27T06:00:38.647Z,35.70
2018-02-27T06:03:06.701Z,35.70
2018-02-27T06:05:35.089Z,35.80
2018-02-27T06:08:03.589Z,36.30
2018-02-27T06:10:34.732Z,36.60
2018-02-27T06:13:03.233Z,36.30
2018-02-27T06:15:31.204Z,36.20
2018-02-27T06:17:59.682Z,33.50
2018-02-27T06:20:28.028Z,36.70
2018-02-27T06:22:57.054Z,36.40
2018-02-27T06:25:26.087Z,37.00
2018-02-27T06:27:54.264Z,36.30
2018-02-27T06:30:22.614Z,36.40
2018-02-27T06:32:51.001Z,36.80
2018-02-27T06:35:19.365Z,37.00
2018-02-27T06:37:48.199Z,37.40
2018-02-27T06:40:15.867Z,37.50
2018-02-27T06:42:43.503Z,37.10
2018-02-27T06:45:13.093Z,37.20
2018-02-27T06:47:41.138Z,37.30
2018-02-27T06:50:10.356Z,37.50
2018-02-27T06:52:37.978Z,36.70
2018-02-27T06:55:06.366Z,36.50
2018-02-27T06:57:34.795Z,36.40
2018-02-27T07:00:02.788Z,36.40
2018-02-27T07:02:31.152Z,37.00
2018-02-27T07:04:59.494Z,37.30
2018-02-27T07:07:28.608Z,38.50
2018-02-27T07:10:09.731Z,37.70
2018-02-27T07:12:38.745Z,38.90
2018-02-27T07:15:09.722Z,39.30
2018-02-27T07:17:41.358Z,40.50
2018-02-27T07:20:09.882Z,37.80
2018-02-27T07:22:38.040Z,37.30
2018-02-27T07:25:06.073Z,37.10
2018-02-27T07:27:36.311Z,36.70
2018-02-27T07:30:04.378Z,36.90
2018-02-27T07:32:32.508Z,37.30
2018-02-27T07:35:01.089Z,36.90
2018-02-27T07:37:30.269Z,36.40
2018-02-27T07:39:58.810Z,36.00
2018-02-27T07:42:27.448Z,34.40
2018-02-27T07:44:55.466Z,36.00
2018-02-27T07:47:24.010Z,36.30
2018-02-27T07:49:52.699Z,36.20
2018-02-27T07:52:20.478Z,35.30
2018-02-27T07:54:48.841Z,34.70
2018-02-27T07:57:16.415Z,34.30
2018-02-27T07:59:44.795Z,33.80
2018-02-27T08:02:14.150Z,34.50
2018-02-27T08:04:42.868Z,33.90
2018-02-27T08:07:10.895Z,34.20
2018-02-27T08:09:39.250Z,34.60
2018-02-27T08:12:07.586Z,34.40
2018-02-27T08:14:36.129Z,35.00
2018-02-27T08:17:04.195Z,36.10
2018-02-27T08:19:32.544Z,35.70
2018-02-27T08:22:01.006Z,34.60
2018-02-27T08:24:29.514Z,34.40
2018-02-27T08:26:57.570Z,34.80
2018-02-27T08:29:25.928Z,34.20
2018-02-27T08:31:54.719Z,33.50
2018-02-27T08:34:22.666Z,34.30
2018-02-27T08:36:51.771Z,35.10
2018-02-27T08:39:19.360Z,34.90
2018-02-27T08:41:48.432Z,35.10
2018-02-27T08:44:16.025Z,33.90
2018-02-27T08:46:44.402Z,33.80
2018-02-27T08:49:12.762Z,33.30
2018-02-27T08:51:41.568Z,32.70
2018-02-27T08:54:09.288Z,32.30
2018-02-27T08:56:37.623Z,32.90
2018-02-27T08:59:07.350Z,32.90
2018-02-27T09:01:35.980Z,33.10
2018-02-27T09:04:03.985Z,32.50
2018-02-27T09:06:32.349Z,32.30
2018-02-27T09:09:00.762Z,32.40
2018-02-27T09:11:29.396Z,31.90
2018-02-27T09:13:57.661Z,31.30
2018-02-27T09:16:25.633Z,30.80
2018-02-27T09:18:54.128Z,30.80
2018-02-27T09:21:22.513Z,31.80
2018-02-27T09:23:50.867Z,31.30
2018-02-27T09:26:19.209Z,31.80
2018-02-27T09:28:47.986Z,31.50
2018-02-27T09:31:17.180Z,32.20
2018-02-27T09:33:45.547Z,31.40
2018-02-27T09:36:13.927Z,30.70
2018-02-27T09:38:42.854Z,30.70
2018-02-27T09:41:10.843Z,30.00
2018-02-27T09:43:39.722Z,30.40
2018-02-27T09:46:08.083Z,30.80
2018-02-27T09:48:36.438Z,30.80
2018-02-27T09:51:04.037Z,31.90
2018-02-27T09:53:32.444Z,32.60
2018-02-27T09:56:00.868Z,32.60
2018-02-27T09:58:29.077Z,32.20
2018-02-27T10:00:57.554Z,31.80
2018-02-27T10:03:25.635Z,31.00
2018-02-27T10:05:53.996Z,30.20
2018-02-27T10:08:22.341Z,30.00
2018-02-27T10:10:50.873Z,29.80
2018-02-27T10:13:19.448Z,29.30
2018-02-27T10:15:47.672Z,28.90
2018-02-27T10:18:15.647Z,29.00
2018-02-27T10:20:43.250Z,29.10
2018-02-27T10:23:11.232Z,29.30
2018-02-27T10:25:39.629Z,29.60
2018-02-27T10:28:07.965Z,30.00
2018-02-27T10:30:36.483Z,30.00
2018-02-27T10:33:05.328Z,29.90
2018-02-27T10:35:33.169Z,29.60
2018-02-27T10:38:01.153Z,29.10
2018-02-27T10:40:28.747Z,29.10
2018-02-27T10:42:56.756Z,28.30
2018-02-27T10:45:25.753Z,28.60
2018-02-27T10:47:53.803Z,28.90
2018-02-27T10:50:21.809Z,28.80
2018-02-27T10:52:50.161Z,28.40
2018-02-27T10:55:18.532Z,28.60
2018-02-27T10:57:46.871Z,28.40
2018-02-27T11:03:23.836Z,27.70
2018-02-27T11:05:52.162Z,28.00
2018-02-27T11:08:19.774Z,28.30
2018-02-27T11:10:48.284Z,28.60
2018-02-27T11:13:17.624Z,29.30
2018-02-27T11:15:45.241Z,29.40
2018-02-27T11:18:12.825Z,28.90
2018-02-27T11:20:41.226Z,29.20
2018-02-27T11:23:08.766Z,29.20
2018-02-27T11:25:37.654Z,28.70
2018-02-27T11:28:06.194Z,28.70
2018-02-27T11:30:34.150Z,27.70
2018-02-27T11:33:02.457Z,27.60
2018-02-27T11:35:31.005Z,27.50
2018-02-27T11:37:59.297Z,28.00
2018-02-27T11:40:31.020Z,27.90
2018-02-27T11:42:58.559Z,28.20
2018-02-27T11:45:26.545Z,28.40
2018-02-27T11:47:57.216Z,27.50
2018-02-27T11:50:25.551Z,27.60
2018-02-27T11:52:53.142Z,27.60
2018-02-27T11:55:20.699Z,27.00
2018-02-27T11:57:50.099Z,27.60
2018-02-27T12:00:18.451Z,27.90
2018-02-27T12:02:46.798Z,27.90
2018-02-27T12:05:14.338Z,27.70
2018-02-27T12:07:42.743Z,28.30
2018-02-27T12:10:10.282Z,28.50
2018-02-27T12:12:38.580Z,27.10
2018-02-27T12:15:06.121Z,26.10
2018-02-27T12:17:34.551Z,26.20
2018-02-27T12:20:03.487Z,26.20
2018-02-27T12:22:32.640Z,26.50
2018-02-27T12:25:00.214Z,26.50
2018-02-27T12:27:28.651Z,26.40
2018-02-27T12:29:56.924Z,25.70
2018-02-27T12:32:25.247Z,26.20
2018-02-27T12:34:53.371Z,26.10
2018-02-27T12:37:23.095Z,26.30
2018-02-27T12:39:54.778Z,25.60
2018-02-27T12:42:24.202Z,25.10
2018-02-27T12:44:51.738Z,50.10
2018-02-27T12:47:20.066Z,54.40
2018-02-27T12:49:48.335Z,27.30
2018-02-27T12:52:15.934Z,27.60
2018-02-27T12:54:43.688Z,24.10
2018-02-27T12:57:11.263Z,21.90
2018-02-27T12:59:38.824Z,19.20
2018-02-27T13:02:13.385Z,21.60
2018-02-27T13:04:46.220Z,21.70
2018-02-27T13:07:13.764Z,20.90
2018-02-27T13:09:42.974Z,19.60
2018-02-27T13:12:10.525Z,19.50
2018-02-27T13:14:38.073Z,18.60
2018-02-27T13:17:07.319Z,18.60
2018-02-27T13:19:36.119Z,17.70
2018-02-27T13:22:03.669Z,18.00
2018-02-27T13:24:31.208Z,18.60
2018-02-27T13:26:58.756Z,18.20
2018-02-27T13:29:27.099Z,17.70
2018-02-27T13:31:55.830Z,17.50
2018-02-27T13:34:23.363Z,17.80
2018-02-27T13:36:52.233Z,17.60
2018-02-27T13:39:20.952Z,17.60
2018-02-27T13:41:49.978Z,18.30
2018-02-27T13:44:17.910Z,17.70
2018-02-27T13:46:45.476Z,16.90
2018-02-27T13:49:14.672Z,17.80
2018-02-27T13:51:43.716Z,17.90
2018-02-27T13:54:11.810Z,18.70
2018-02-27T13:56:40.138Z,18.30
2018-02-27T13:59:07.678Z,18.00
2018-02-27T14:01:36.730Z,18.40
2018-02-27T14:04:06.342Z,19.00
2018-02-27T14:06:35.430Z,19.10
2018-02-27T14:09:03.389Z,20.20
2018-02-27T14:11:31.307Z,19.00
2018-02-27T14:14:00.503Z,20.80
2018-02-27T14:16:28.837Z,21.60
2018-02-27T14:18:57.117Z,19.90
2018-02-27T14:21:25.602Z,19.10
2018-02-27T14:23:54.992Z,18.90
2018-02-27T14:26:22.938Z,18.90
2018-02-27T14:28:50.493Z,18.30
2018-02-27T14:31:18.872Z,18.30
2018-02-27T14:33:46.470Z,17.50
2018-02-27T14:36:14.957Z,17.70
2018-02-27T14:38:43.274Z,17.90
2018-02-27T14:41:10.829Z,17.50
2018-02-27T14:43:38.765Z,17.70
2018-02-27T14:46:07.054Z,17.50
2018-02-27T14:48:35.379Z,17.40
2018-02-27T14:51:03.694Z,18.90
2018-02-27T14:53:32.007Z,18.90
2018-02-27T14:56:00.848Z,19.20
2018-02-27T14:58:29.530Z,19.90
2018-02-27T15:00:59.103Z,19.90
2018-02-27T15:03:27.122Z,20.00
2018-02-27T15:05:55.754Z,19.90
2018-02-27T15:08:25.104Z,20.70
2018-02-27T15:10:53.446Z,20.80
2018-02-27T15:13:21.759Z,20.80
2018-02-27T15:15:51.035Z,20.80
2018-02-27T15:18:18.587Z,20.60
2018-02-27T15:20:47.755Z,20.80
2018-02-27T15:23:17.099Z,20.60
2018-02-27T15:25:45.661Z,20.60
2018-02-27T15:28:14.108Z,20.10
2018-02-27T15:30:41.644Z,20.30
2018-02-27T15:33:09.978Z,20.40
2018-02-27T15:35:38.318Z,20.60
2018-02-27T15:38:07.065Z,20.70
2018-02-27T15:40:35.884Z,20.90
2018-02-27T15:43:03.434Z,21.30
2018-02-27T15:45:33.430Z,21.40
2018-02-27T15:48:01.382Z,21.70
2018-02-27T15:50:29.684Z,21.90
2018-02-27T15:52:57.236Z,21.60
2018-02-27T15:55:25.217Z,21.50
2018-02-27T15:57:53.158Z,21.50
2018-02-27T16:00:21.240Z,21.50
2018-02-27T16:02:52.339Z,21.80
2018-02-27T16:05:20.289Z,21.60
2018-02-27T16:07:48.854Z,21.90
2018-02-27T16:10:17.192Z,22.50
2018-02-27T16:12:45.123Z,22.30
2018-02-27T16:15:13.501Z,22.30
2018-02-27T16:17:42.999Z,23.60
2018-02-27T16:20:12.599Z,23.60
2018-02-27T16:22:41.271Z,24.20
2018-02-27T16:25:10.321Z,24.50
2018-02-27T16:27:39.187Z,24.90
2018-02-27T16:30:07.784Z,24.90
2018-02-27T16:32:36.256Z,25.20
2018-02-27T16:35:05.302Z,24.80
2018-02-27T16:37:32.891Z,24.80
2018-02-27T16:40:00.507Z,24.60
2018-02-27T16:42:28.062Z,24.60
2018-02-27T16:44:56.448Z,25.00
2018-02-27T16:47:24.805Z,24.90
2018-02-27T16:49:53.200Z,25.00
2018-02-27T16:52:20.740Z,24.90
2018-02-27T16:54:49.136Z,24.90
2018-02-27T16:57:17.529Z,25.30
2018-02-27T16:59:45.109Z,25.60
2018-02-27T17:02:13.354Z,25.70
2018-02-27T17:04:42.937Z,25.60
2018-02-27T17:07:15.271Z,25.40
2018-02-27T17:09:46.757Z,25.90
2018-02-27T17:12:14.562Z,25.90
2018-02-27T17:14:42.255Z,26.10
2018-02-27T17:17:10.566Z,26.00
2018-02-27T17:19:39.641Z,25.80
2018-02-27T17:22:07.917Z,26.20
2018-02-27T17:24:36.359Z,25.90
2018-02-27T17:27:03.909Z,25.80
2018-02-27T17:29:33.184Z,25.70
2018-02-27T17:32:01.462Z,25.70
2018-02-27T17:34:29.637Z,25.80
2018-02-27T17:36:57.900Z,26.00
2018-02-27T17:39:26.270Z,25.90
2018-02-27T17:41:53.808Z,26.00
2018-02-27T17:44:22.829Z,26.00
2018-02-27T17:46:50.387Z,26.20
2018-02-27T17:49:17.969Z,26.20
2018-02-27T17:51:45.539Z,26.40
2018-02-27T17:54:13.111Z,26.30
2018-02-27T17:56:41.150Z,26.70
2018-02-27T17:59:08.673Z,27.00
2018-02-27T18:01:37.087Z,27.30
2018-02-27T18:04:06.015Z,27.50
2018-02-27T18:06:35.158Z,27.90
2018-02-27T18:09:04.050Z,27.60
2018-02-27T18:11:33.196Z,28.20
2018-02-27T18:14:00.759Z,28.10
2018-02-27T18:16:32.511Z,28.50
2018-02-27T18:19:01.119Z,28.00
2018-02-27T18:21:28.687Z,28.40
2018-02-27T18:23:57.031Z,28.20
2018-02-27T18:26:28.713Z,28.30
2018-02-27T18:28:59.170Z,28.90
2018-02-27T18:31:26.749Z,29.70
2018-02-27T18:33:54.678Z,29.70
2018-02-27T18:36:22.981Z,29.60
2018-02-27T18:38:51.846Z,29.70
2018-02-27T18:41:20.858Z,30.00
2018-02-27T18:43:49.987Z,29.90
2018-02-27T18:46:20.808Z,28.90
2018-02-27T18:48:49.309Z,29.30
2018-02-27T18:51:16.866Z,29.30
2018-02-27T18:53:46.255Z,29.60
2018-02-27T18:56:13.874Z,29.20
2018-02-27T18:58:43.090Z,29.60
2018-02-27T19:01:11.237Z,29.40
2018-02-27T19:03:39.514Z,29.00
2018-02-27T19:06:07.104Z,29.80
2018-02-27T19:08:36.049Z,30.10
2018-02-27T19:11:03.617Z,28.90
2018-02-27T19:13:31.402Z,28.80
2018-02-27T19:16:01.456Z,29.20
2018-02-27T19:18:30.546Z,29.70
2018-02-27T19:20:58.813Z,29.50
2018-02-27T19:23:27.296Z,29.60
2018-02-27T19:26:00.403Z,29.20
2018-02-27T19:28:30.548Z,29.90
2018-02-27T19:30:59.855Z,30.70
2018-02-27T19:33:28.332Z,30.50
2018-02-27T19:35:57.092Z,30.10
2018-02-27T19:38:25.819Z,30.20
2018-02-27T19:40:54.833Z,30.10
2018-02-27T19:43:30.706Z,30.00
2018-02-27T19:46:02.582Z,30.10
2018-02-27T19:48:31.156Z,30.40
2018-02-27T19:51:00.392Z,30.90
2018-02-27T19:56:04.726Z,31.70
2018-02-27T19:58:34.242Z,31.30
2018-02-27T20:01:03.836Z,31.00
2018-02-27T20:03:32.201Z,31.50
2018-02-27T20:06:00.659Z,31.00
2018-02-27T20:08:29.899Z,30.90
2018-02-27T20:10:59.358Z,31.20
2018-02-27T20:13:30.556Z,32.00
2018-02-27T20:16:04.912Z,33.30
2018-02-27T20:18:34.560Z,32.10
2018-02-27T20:21:08.772Z,32.90
2018-02-27T20:23:42.027Z,32.60
2018-02-27T20:26:12.747Z,32.50
2018-02-27T20:28:49.182Z,32.60
2018-02-27T20:31:19.125Z,33.00
2018-02-27T20:33:46.681Z,32.10
2018-02-27T20:36:16.369Z,32.30
2018-02-27T20:38:51.926Z,32.10
2018-02-27T20:41:19.483Z,32.00
2018-02-27T20:43:48.261Z,31.90
2018-02-27T20:46:16.646Z,32.10
2018-02-27T20:48:51.390Z,32.00
2018-02-27T20:51:23.074Z,32.40
2018-02-27T20:59:06.495Z,32.30
2018-02-27T21:01:34.837Z,32.50
2018-02-27T21:04:03.172Z,32.60
2018-02-27T21:06:30.820Z,32.60
2018-02-27T21:09:00.277Z,32.50
2018-02-27T21:11:28.125Z,32.20
2018-02-27T21:13:55.731Z,32.00
2018-02-27T21:16:24.957Z,32.60
2018-02-27T21:18:53.284Z,33.30
2018-02-27T21:21:20.853Z,32.80
2018-02-27T21:23:50.299Z,32.70
2018-02-27T21:26:18.880Z,33.20
2018-02-27T21:28:47.781Z,33.10
2018-02-27T21:31:16.300Z,32.90
2018-02-27T21:33:43.858Z,33.30
2018-02-27T21:36:11.703Z,33.30
2018-02-27T21:38:40.714Z,34.50
2018-02-27T21:41:11.581Z,35.40
2018-02-27T21:46:12.013Z,35.20
2018-02-27T21:48:46.146Z,35.80
2018-02-27T21:51:13.936Z,36.30
2018-02-27T21:53:42.236Z,36.20
2018-02-27T21:56:11.406Z,36.00
2018-02-27T21:58:40.515Z,34.50
2018-02-27T22:01:10.500Z,34.80
2018-02-27T22:03:39.145Z,34.80
2018-02-27T22:06:08.491Z,34.40
2018-02-27T22:08:41.855Z,34.90
2018-02-27T22:11:10.444Z,35.00
2018-02-27T22:13:38.759Z,34.50
2018-02-27T22:16:06.301Z,34.10
2018-02-27T22:18:34.755Z,33.70
2018-02-27T22:21:08.522Z,34.10
2018-02-27T22:23:36.898Z,34.20
2018-02-27T22:26:05.395Z,33.80
2018-02-27T22:28:32.944Z,34.20
2018-02-27T22:31:02.167Z,34.00
2018-02-27T22:33:29.808Z,34.50
2018-02-27T22:35:59.151Z,34.50
2018-02-27T22:38:28.349Z,34.40
2018-02-27T22:40:56.239Z,34.40
2018-02-27T22:43:23.854Z,34.60
2018-02-27T22:45:52.151Z,34.70
2018-02-27T22:48:19.773Z,35.00
2018-02-27T22:50:47.303Z,35.00
2018-02-27T22:53:15.474Z,35.30
2018-02-27T22:55:43.053Z,35.80
2018-02-27T22:58:10.612Z,35.70
2018-02-27T23:00:40.098Z,35.30
2018-02-27T23:03:08.376Z,35.20
2018-02-27T23:05:36.405Z,35.30
2018-02-27T23:08:03.923Z,35.30
2018-02-27T23:10:31.492Z,35.00
2018-02-27T23:12:59.395Z,35.40
2018-02-27T23:15:26.960Z,35.70
2018-02-27T23:17:54.545Z,35.50
2018-02-27T23:20:23.166Z,35.20
2018-02-27T23:22:50.701Z,35.30
2018-02-27T23:25:19.664Z,35.30
2018-02-27T23:27:51.748Z,35.30
2018-02-27T23:30:20.177Z,35.40
2018-02-27T23:32:48.859Z,35.80
2018-02-27T23:35:19.419Z,36.10
2018-02-27T23:37:46.949Z,35.60
2018-02-27T23:40:15.449Z,36.00
2018-02-27T23:42:43.747Z,36.50
2018-02-27T23:47:49.799Z,36.40
2018-02-27T23:50:17.365Z,36.50
2018-02-27T23:52:44.946Z,36.80
2018-02-27T23:55:13.647Z,37.10
2018-02-27T23:57:42.685Z,36.80
